Time;durP1;ratioP1;P1;durP2;ratioP2;P2;SDS_P1;SDS_P2;PMS_P1;PMS_P2;Temp;Humidity;BMP_temperature;BMP_pressure;BME280_temperature;BME280_humidity;BME280_pressure;Samples;Min_cycle;Max_cycle;Signal;HPM_P1;HPM_P2
2022/11/11 00:00:29;;;;;;;54.38;14.32;;;;;;;10.60;100.00;99376.09;4967894;28;20412;-58
2022/11/11 00:02:55;;;;;;;61.28;14.98;;;;;;;10.30;100.00;99379.22;4967286;28;20041;-59
2022/11/11 00:05:21;;;;;;;58.10;14.23;;;;;;;10.37;100.00;99386.09;4967548;28;20061;-58
2022/11/11 00:07:47;;;;;;;62.13;15.35;;;;;;;10.02;100.00;99379.72;4965162;28;20054;-60
2022/11/11 00:10:12;;;;;;;62.47;15.45;;;;;;;10.13;100.00;99382.16;4966436;28;20485;-59
2022/11/11 00:12:37;;;;;;;51.40;14.35;;;;;;;10.56;100.00;99377.03;4967827;28;20317;-58
2022/11/11 00:15:03;;;;;;;64.47;15.32;;;;;;;10.21;100.00;99368.06;4967518;28;20007;-58
2022/11/11 00:25:40;;;;;;;58.03;15.27;;;;;;;10.03;100.00;99356.22;4966223;28;20129;-58
2022/11/11 00:28:06;;;;;;;60.40;15.02;;;;;;;10.20;100.00;99350.72;4966934;28;20532;-58
2022/11/11 00:30:31;;;;;;;57.67;14.98;;;;;;;10.27;100.00;99345.38;4967879;28;20129;-59
2022/11/11 00:32:57;;;;;;;53.35;13.25;;;;;;;10.16;100.00;99341.22;4966987;28;20093;-58
2022/11/11 00:38:44;;;;;;;46.58;12.27;;;;;;;10.37;100.00;99344.38;4966011;28;20914;-58
2022/11/11 00:40:57;;;;;;;47.22;12.85;;;;;;;9.59;100.00;99338.69;4968011;28;20068;-58
2022/11/11 00:43:22;;;;;;;55.80;13.70;;;;;;;10.41;100.00;99346.03;4965008;28;20018;-59
2022/11/11 00:45:47;;;;;;;50.42;12.93;;;;;;;10.20;100.00;99348.09;4968017;28;20161;-58
2022/11/11 00:51:00;;;;;;;55.13;14.55;;;;;;;10.35;100.00;99348.75;4965223;28;20082;-58
2022/11/11 00:53:28;;;;;;;63.15;14.30;;;;;;;10.52;100.00;99359.72;4969209;28;20039;-58
2022/11/11 00:55:55;;;;;;;61.53;14.50;;;;;;;10.55;100.00;99364.00;4970226;28;20315;-61
2022/11/11 00:58:22;;;;;;;55.97;13.85;;;;;;;10.01;100.00;99362.34;4971208;28;20044;-58
2022/11/11 01:00:52;;;;;;;68.30;15.65;;;;;;;9.84;100.00;99358.25;4968653;28;20053;-59
2022/11/11 01:03:18;;;;;;;61.17;13.80;;;;;;;9.97;100.00;99366.75;4972029;28;20048;-59
2022/11/11 01:05:44;;;;;;;60.65;13.82;;;;;;;9.94;100.00;99366.78;4970816;28;20397;-59
2022/11/11 01:08:09;;;;;;;52.90;13.70;;;;;;;9.39;100.00;99359.81;4970334;28;20925;-58
2022/11/11 01:10:42;;;;;;;64.05;15.18;;;;;;;9.44;100.00;99371.91;4970342;28;20462;-58
2022/11/11 01:13:16;;;;;;;58.95;14.15;;;;;;;9.89;100.00;99380.78;4969705;28;20040;-58
2022/11/11 01:15:44;;;;;;;64.72;14.63;;;;;;;9.55;100.00;99383.91;4968381;28;20039;-59
2022/11/11 01:18:12;;;;;;;58.80;14.23;;;;;;;9.22;100.00;99375.69;4970507;28;20035;-58
2022/11/11 01:20:38;;;;;;;50.40;13.20;;;;;;;9.32;100.00;99377.28;4970594;28;20687;-58
2022/11/11 01:23:05;;;;;;;53.80;13.07;;;;;;;8.91;100.00;99375.22;4971644;28;20752;-59
2022/11/11 01:25:38;;;;;;;50.58;13.95;;;;;;;9.27;100.00;99368.69;4970714;28;20061;-58
2022/11/11 01:28:04;;;;;;;63.15;15.23;;;;;;;9.74;100.00;99382.75;4968839;28;20033;-58
2022/11/11 01:30:32;;;;;;;53.03;13.43;;;;;;;9.94;100.00;99386.78;4968769;28;20677;-58
2022/11/11 01:32:58;;;;;;;63.67;14.63;;;;;;;10.10;100.00;99383.03;4969750;28;20026;-59
2022/11/11 01:35:23;;;;;;;47.72;13.90;;;;;;;9.54;100.00;99375.25;4970060;28;20102;-58
2022/11/11 01:37:48;;;;;;;41.63;12.02;;;;;;;9.56;100.00;99375.22;4967833;28;20070;-58
2022/11/11 01:40:14;;;;;;;52.58;12.27;;;;;;;9.73;100.00;99381.03;4969759;28;20026;-59
2022/11/11 01:42:49;;;;;;;44.92;12.32;;;;;;;10.04;100.00;99377.94;4968438;28;20523;-58
2022/11/11 01:45:45;;;;;;;54.60;12.18;;;;;;;10.00;100.00;99382.34;4966678;28;20080;-59
2022/11/11 01:51:36;;;;;;;51.60;12.18;;;;;;;9.64;100.00;99386.38;4968241;28;20744;-58
2022/11/11 01:54:07;;;;;;;40.85;11.73;;;;;;;9.52;100.00;99394.38;4966672;28;20889;-57
2022/11/11 01:56:33;;;;;;;52.00;12.20;;;;;;;9.91;100.00;99386.84;4967164;28;20045;-58
2022/11/11 01:59:08;;;;;;;52.92;11.93;;;;;;;9.71;100.00;99390.63;4968626;28;20544;-59
2022/11/11 02:01:34;;;;;;;49.25;12.70;;;;;;;9.84;100.00;99386.06;4968818;28;20382;-58
2022/11/11 02:06:52;;;;;;;49.75;12.20;;;;;;;9.44;100.00;99387.53;4968342;28;20041;-57
2022/11/11 02:09:20;;;;;;;49.67;12.23;;;;;;;9.22;100.00;99386.09;4967592;28;20030;-58
2022/11/11 02:14:38;;;;;;;53.33;12.70;;;;;;;9.76;100.00;99390.53;4967330;28;20097;-57
2022/11/11 02:17:06;;;;;;;42.55;11.73;;;;;;;9.60;100.00;99382.97;4967414;28;20031;-58
2022/11/11 02:19:44;;;;;;;50.03;12.65;;;;;;;9.80;100.00;99385.25;4968530;28;20041;-59
2022/11/11 02:22:16;;;;;;;52.03;11.75;;;;;;;9.83;100.00;99382.63;4968028;28;20047;-57
2022/11/11 02:24:42;;;;;;;45.03;11.45;;;;;;;9.73;100.00;99382.78;4969157;28;20636;-58
2022/11/11 02:27:14;;;;;;;45.60;11.18;;;;;;;9.73;100.00;99394.06;4966742;28;20728;-59
2022/11/11 02:29:40;;;;;;;;;;;;;;;9.69;100.00;99387.19;4965967;28;20058;-58
2022/11/11 02:32:05;;;;;;;47.63;12.38;;;;;;;9.63;100.00;99389.84;4965749;28;20031;-58
2022/11/11 02:34:32;;;;;;;76.55;16.55;;;;;;;9.71;100.00;99389.75;4965355;28;20038;-57
2022/11/11 02:36:59;;;;;;;38.42;10.50;;;;;;;9.97;100.00;99386.75;4969865;28;20049;-58
2022/11/11 02:39:26;;;;;;;36.47;10.95;;;;;;;9.80;100.00;99387.88;5021808;23;20111;-59
2022/11/11 02:41:57;;;;;;;41.60;11.38;;;;;;;9.93;100.00;99379.88;5002056;28;20065;-59
2022/11/11 02:44:24;;;;;;;32.03;10.67;;;;;;;9.86;100.00;99378.25;4999293;28;20392;-60
2022/11/11 02:46:49;;;;;;;37.88;10.85;;;;;;;9.72;100.00;99381.91;4998826;28;20096;-59
2022/11/11 02:49:15;;;;;;;35.22;10.75;;;;;;;9.74;100.00;99380.16;4991312;28;20022;-60
2022/11/11 02:51:40;;;;;;;30.48;10.18;;;;;;;9.80;100.00;99380.06;4994184;28;20431;-59
2022/11/11 02:54:05;;;;;;;38.30;10.65;;;;;;;9.82;100.00;99380.88;4996132;28;20052;-59
2022/11/11 02:59:15;;;;;;;31.55;10.10;;;;;;;9.72;100.00;99389.72;4999694;28;20123;-59
2022/11/11 03:01:40;;;;;;;31.65;10.20;;;;;;;9.79;100.00;99396.56;4994769;28;20117;-61
2022/11/11 03:04:06;;;;;;;34.40;10.32;;;;;;;9.92;100.00;99391.16;5001994;28;20535;-60
2022/11/11 03:06:31;;;;;;;32.95;9.95;;;;;;;9.86;100.00;99389.50;4998625;28;20119;-61
2022/11/11 03:08:56;;;;;;;31.60;10.05;;;;;;;9.83;100.00;99384.34;5000562;28;20123;-61
2022/11/11 03:11:28;;;;;;;38.50;10.73;;;;;;;9.80;100.00;99384.41;4987761;28;20034;-62
2022/11/11 03:13:55;;;;;;;29.52;9.77;;;;;;;9.94;100.00;99392.00;4971657;28;20026;-60
2022/11/11 03:19:04;;;;;;;25.10;8.77;;;;;;;9.49;100.00;99400.50;4995590;28;20109;-61
2022/11/11 03:21:30;;;;;;;28.83;9.23;;;;;;;9.36;100.00;99415.44;5000026;28;20136;-60
2022/11/11 03:23:55;;;;;;;38.28;9.35;;;;;;;9.51;100.00;99414.34;4997951;28;20125;-60
2022/11/11 03:26:20;;;;;;;41.08;10.45;;;;;;;9.18;100.00;99415.66;4985415;28;20045;-59
2022/11/11 03:28:46;;;;;;;39.35;9.57;;;;;;;9.75;100.00;99413.13;4977625;28;20061;-60
2022/11/11 03:31:11;;;;;;;41.00;10.10;;;;;;;9.75;100.00;99413.13;4984167;28;20075;-59
2022/11/11 03:33:37;;;;;;;31.05;9.45;;;;;;;9.67;100.00;99409.78;4993312;28;20044;-62
2022/11/11 03:36:02;;;;;;;30.83;9.25;;;;;;;9.57;100.00;99413.41;4995704;28;20065;-62
2022/11/11 03:38:28;;;;;;;35.72;9.98;;;;;;;9.12;100.00;99405.34;4995968;28;20474;-60
2022/11/11 03:40:55;;;;;;;30.85;9.23;;;;;;;9.37;100.00;99400.66;4989751;28;20030;-61
2022/11/11 03:43:23;;;;;;;39.95;10.60;;;;;;;9.36;100.00;99404.16;4974988;28;20877;-59
2022/11/11 03:45:49;;;;;;;26.48;8.60;;;;;;;9.32;100.00;99400.75;4983079;28;20105;-61
2022/11/11 03:48:15;;;;;;;31.30;9.15;;;;;;;9.69;100.00;99404.56;4992220;28;20018;-62
2022/11/11 03:50:40;;;;;;;32.55;10.00;;;;;;;9.54;100.00;99403.03;4996839;28;20442;-62
2022/11/11 03:53:06;;;;;;;30.38;9.50;;;;;;;9.62;100.00;99401.19;4999513;28;20062;-60
2022/11/11 03:55:31;;;;;;;32.58;9.40;;;;;;;9.51;100.00;99413.50;4990859;28;20148;-60
2022/11/11 03:57:57;;;;;;;33.20;8.85;;;;;;;9.57;100.00;99408.19;4980529;28;20508;-60
2022/11/11 04:00:25;;;;;;;28.35;8.93;;;;;;;9.03;100.00;99407.16;4979088;28;20395;-62
2022/11/11 04:11:08;;;;;;;29.00;8.85;;;;;;;9.14;100.00;99396.63;4991677;28;20045;-60
2022/11/11 04:16:19;;;;;;;31.02;8.98;;;;;;;9.29;100.00;99398.16;4982163;28;20044;-60
2022/11/11 04:21:43;;;;;;;30.08;9.00;;;;;;;9.05;100.00;99405.41;4992596;28;20100;-62
2022/11/11 04:27:01;;;;;;;29.02;8.65;;;;;;;8.81;100.00;99408.31;4980578;28;20146;-60
2022/11/11 04:29:27;;;;;;;37.72;8.65;;;;;;;8.46;100.00;99413.00;4980165;28;20030;-61
2022/11/11 04:34:44;;;;;;;26.30;8.25;;;;;;;8.70;100.00;99415.38;5004108;28;20169;-58
2022/11/11 04:37:10;;;;;;;34.88;8.98;;;;;;;8.95;100.00;99416.81;4996942;28;20134;-60
2022/11/11 04:42:20;;;;;;;27.73;8.55;;;;;;;8.95;100.00;99428.94;4981876;28;20614;-61
2022/11/11 04:47:29;;;;;;;29.83;8.75;;;;;;;9.13;100.00;99438.28;4997226;28;20411;-60
2022/11/11 04:49:54;;;;;;;29.17;9.05;;;;;;;9.31;100.00;99439.81;5004465;28;20026;-60
2022/11/11 04:52:25;;;;;;;40.03;10.27;;;;;;;9.29;100.00;99438.97;4996643;28;20042;-59
2022/11/11 04:57:46;;;;;;;33.38;9.18;;;;;;;9.19;100.00;99438.19;4970263;28;20089;-59
2022/11/11 05:00:15;;;;;;;31.58;8.68;;;;;;;9.44;100.00;99438.75;4970811;28;20317;-60
2022/11/11 05:05:25;;;;;;;38.55;9.48;;;;;;;9.60;100.00;99439.41;4981048;28;20038;-60
2022/11/11 05:10:35;;;;;;;31.05;8.88;;;;;;;9.59;100.00;99448.09;4984850;28;20541;-60
2022/11/11 05:21:26;;;;;;;28.17;7.75;;;;;;;9.23;100.00;99451.19;4987977;28;20053;-61
2022/11/11 05:26:36;;;;;;;31.23;8.38;;;;;;;9.40;100.00;99458.78;4992176;28;20310;-59
2022/11/11 05:29:02;;;;;;;28.17;7.82;;;;;;;9.09;100.00;99462.63;4999743;28;20590;-60
2022/11/11 05:31:28;;;;;;;30.85;8.38;;;;;;;8.86;100.00;99454.22;5000352;28;20044;-59
2022/11/11 05:33:53;;;;;;;26.58;7.90;;;;;;;9.47;100.00;99458.72;4997183;28;20018;-58
2022/11/11 05:36:19;;;;;;;32.35;8.75;;;;;;;9.39;100.00;99461.38;4985884;28;20848;-60
2022/11/11 05:38:44;;;;;;;37.58;11.35;;;;;;;9.29;100.00;99459.81;4979021;28;20097;-61
2022/11/11 05:41:09;;;;;;;37.78;10.98;;;;;;;9.44;100.00;99470.88;4983810;28;20038;-60
2022/11/11 05:43:35;;;;;;;37.70;10.68;;;;;;;9.35;100.00;99462.31;4996731;28;20026;-60
2022/11/11 05:46:00;;;;;;;33.45;10.52;;;;;;;9.24;100.00;99481.56;5001784;28;20530;-59
2022/11/11 05:48:25;;;;;;;28.85;9.23;;;;;;;9.41;100.00;99486.56;5001142;28;20109;-62
2022/11/11 05:50:51;;;;;;;40.50;11.07;;;;;;;9.32;100.00;99491.88;4995519;28;20197;-59
2022/11/11 05:53:22;;;;;;;30.88;8.80;;;;;;;9.32;100.00;99496.19;4981552;28;20096;-59
2022/11/11 05:55:49;;;;;;;39.13;10.00;;;;;;;9.39;100.00;99501.34;4984970;28;20049;-62
2022/11/11 05:58:16;;;;;;;30.70;8.80;;;;;;;9.31;100.00;99500.56;5001297;28;20022;-60
2022/11/11 06:00:42;;;;;;;29.50;8.52;;;;;;;9.22;100.00;99498.06;4997229;28;20029;-60
2022/11/11 06:03:07;;;;;;;34.25;8.82;;;;;;;9.37;100.00;99513.50;4994946;28;20028;-61
2022/11/11 06:05:35;;;;;;;34.00;9.68;;;;;;;9.50;100.00;99506.38;4995606;28;20044;-60
2022/11/11 06:08:00;;;;;;;38.15;9.88;;;;;;;9.24;100.00;99506.72;4978281;28;20030;-59
2022/11/11 06:10:31;;;;;;;28.55;9.07;;;;;;;9.19;100.00;99505.91;4980963;28;20025;-59
2022/11/11 06:13:00;;;;;;;33.00;9.68;;;;;;;9.21;100.00;99509.38;4996817;28;20025;-59
2022/11/11 06:15:36;;;;;;;29.60;8.90;;;;;;;9.39;100.00;99518.69;4997792;28;20701;-64
2022/11/11 06:18:03;;;;;;;27.75;8.60;;;;;;;9.59;100.00;99511.50;5001248;28;20033;-60
2022/11/11 06:20:28;;;;;;;34.75;9.57;;;;;;;9.53;100.00;99518.53;4996575;28;20034;-63
2022/11/11 06:22:56;;;;;;;31.60;9.80;;;;;;;9.48;100.00;99520.31;4979813;28;20112;-60
2022/11/11 06:28:15;;;;;;;38.10;11.00;;;;;;;9.30;100.00;99529.22;4998634;28;20135;-60
2022/11/11 06:30:41;;;;;;;36.30;10.32;;;;;;;9.15;100.00;99528.50;4999552;28;20037;-61
2022/11/11 06:33:08;;;;;;;33.33;9.88;;;;;;;9.18;100.00;99520.66;5000706;28;20026;-60
2022/11/11 06:35:35;;;;;;;32.42;9.10;;;;;;;9.40;100.00;99521.28;4993556;28;20038;-59
2022/11/11 06:38:04;;;;;;;37.10;11.65;;;;;;;9.14;100.00;99508.56;4978684;28;20034;-60
2022/11/11 06:40:30;;;;;;;46.03;12.98;;;;;;;9.38;100.00;99506.56;4978695;28;20116;-59
2022/11/11 06:42:56;;;;;;;28.60;8.60;;;;;;;9.68;100.00;99502.69;5000727;28;20565;-59
2022/11/11 06:45:23;;;;;;;38.47;11.93;;;;;;;8.17;100.00;99506.81;4994134;28;20026;-59
2022/11/11 06:47:49;;;;;;;37.22;12.77;;;;;;;7.48;100.00;99502.88;4998071;28;20041;-59
2022/11/11 06:50:14;;;;;;;38.25;12.57;;;;;;;7.54;100.00;99504.59;4993617;28;20056;-60
2022/11/11 06:52:40;;;;;;;44.85;14.07;;;;;;;7.70;100.00;99502.75;4978794;28;20817;-59
2022/11/11 06:55:06;;;;;;;42.47;12.63;;;;;;;7.40;100.00;99507.22;4978319;28;20136;-59
2022/11/11 06:57:31;;;;;;;35.25;13.27;;;;;;;7.51;100.00;99508.03;4991077;28;20033;-56
2022/11/11 06:59:57;;;;;;;50.30;13.57;;;;;;;7.68;100.00;99507.97;4991161;28;20022;-58
2022/11/11 07:02:22;;;;;;;35.80;12.10;;;;;;;9.35;100.00;99501.38;4978363;28;20038;-60
2022/11/11 07:04:47;;;;;;;35.67;11.48;;;;;;;10.10;100.00;99502.13;4980040;28;20031;-58
2022/11/11 07:07:13;;;;;;;38.80;11.10;;;;;;;10.09;100.00;99506.47;4991046;28;20042;-58
2022/11/11 07:09:38;;;;;;;28.63;10.65;;;;;;;10.35;100.00;99510.47;4993241;28;20034;-57
2022/11/11 07:12:05;;;;;;;44.55;12.70;;;;;;;10.09;100.00;99514.31;4998444;28;20087;-60
2022/11/11 07:14:31;;;;;;;330.00;27.25;;;;;;;11.05;100.00;99512.75;4999360;28;20028;-59
2022/11/11 07:16:57;;;;;;;978.72;57.38;;;;;;;11.75;100.00;99513.91;4986489;28;20037;-59
2022/11/11 07:19:22;;;;;;;1999.90;165.07;;;;;;;11.06;100.00;99527.50;4977766;28;20030;-59
2022/11/11 07:21:47;;;;;;;162.02;15.57;;;;;;;10.09;100.00;99524.72;4990586;28;20060;-58
2022/11/11 07:24:13;;;;;;;673.85;36.05;;;;;;;11.30;100.00;99519.22;4994217;28;20031;-58
2022/11/11 07:26:38;;;;;;;1999.90;145.13;;;;;;;12.41;100.00;99526.44;4994766;28;20038;-58
2022/11/11 07:29:03;;;;;;;1999.90;521.90;;;;;;;13.35;100.00;99531.91;4995597;28;20030;-58
2022/11/11 07:31:29;;;;;;;1999.90;525.03;;;;;;;13.86;100.00;99520.81;4987372;28;20039;-57
2022/11/11 07:33:54;;;;;;;744.17;55.55;;;;;;;14.24;100.00;99518.75;4975413;28;20115;-58
2022/11/11 07:36:20;;;;;;;894.92;46.60;;;;;;;13.24;100.00;99525.16;4987814;28;20193;-57
2022/11/11 07:38:45;;;;;;;41.00;9.93;;;;;;;13.07;100.00;99524.75;4998450;28;20080;-57
2022/11/11 07:41:10;;;;;;;24.08;8.85;;;;;;;12.51;100.00;99536.63;4999539;28;20034;-57
2022/11/11 07:43:36;;;;;;;27.23;8.77;;;;;;;13.01;100.00;99535.38;5003020;28;20034;-58
2022/11/11 07:46:01;;;;;;;24.40;7.82;;;;;;;12.32;100.00;99532.75;4992519;28;20161;-59
2022/11/11 07:48:26;;;;;;;28.00;8.48;;;;;;;12.71;100.00;99537.91;4978501;28;20088;-59
2022/11/11 07:50:59;;;;;;;29.85;8.15;;;;;;;13.02;100.00;99531.88;4986124;28;20041;-58
2022/11/11 07:53:27;;;;;;;27.10;7.82;;;;;;;12.29;100.00;99536.28;4996773;28;20411;-59
2022/11/11 07:55:52;;;;;;;30.13;8.10;;;;;;;12.09;100.00;99538.50;4992485;28;20050;-58
2022/11/11 07:58:18;;;;;;;24.35;8.25;;;;;;;12.96;100.00;99542.50;4976022;28;20034;-58
2022/11/11 08:00:43;;;;;;;28.85;8.18;;;;;;;13.53;100.00;99547.09;4977712;28;20038;-58
2022/11/11 08:03:09;;;;;;;23.65;7.65;;;;;;;13.31;100.00;99544.22;4980018;28;20038;-59
2022/11/11 08:05:34;;;;;;;29.13;8.05;;;;;;;13.45;100.00;99535.97;4987097;28;20801;-57
2022/11/11 08:08:06;;;;;;;20.67;6.93;;;;;;;13.48;100.00;99541.13;5002526;28;20073;-57
2022/11/11 08:10:32;;;;;;;;;;;;;;;14.01;100.00;99540.47;4997047;28;20401;-60
2022/11/11 08:15:42;;;;;;;24.70;7.30;;;;;;;13.54;100.00;99550.56;4994308;28;20111;-60
2022/11/11 08:18:07;;;;;;;19.38;6.35;;;;;;;14.30;100.00;99544.81;4979779;28;20034;-58
2022/11/11 08:20:33;;;;;;;25.50;7.93;;;;;;;13.80;100.00;99544.56;4982655;28;20042;-58
2022/11/11 08:22:59;;;;;;;22.85;7.35;;;;;;;13.90;100.00;99540.78;5001639;28;20034;-58
2022/11/11 08:25:25;;;;;;;23.08;7.38;;;;;;;14.54;100.00;99539.66;5001256;28;20551;-58
2022/11/11 08:27:57;;;;;;;23.98;7.40;;;;;;;14.36;100.00;99543.75;5002604;28;20476;-58
2022/11/11 08:30:23;;;;;;;27.95;7.18;;;;;;;13.96;100.00;99543.22;4997563;28;20416;-57
2022/11/11 08:32:55;;;;;;;30.75;8.50;;;;;;;13.50;100.00;99549.81;4979409;28;20038;-57
2022/11/11 08:35:20;;;;;;;23.90;7.28;;;;;;;14.20;100.00;99546.84;4984243;28;20031;-57
2022/11/11 08:37:45;;;;;;;23.40;7.95;;;;;;;15.03;100.00;99545.94;5000822;28;20030;-57
2022/11/11 08:40:11;;;;;;;22.70;7.55;;;;;;;14.06;100.00;99544.66;4995092;28;20046;-59
2022/11/11 08:42:36;;;;;;;20.17;7.45;;;;;;;14.96;100.00;99547.03;4999019;28;20099;-58
2022/11/11 08:45:02;;;;;;;20.38;6.90;;;;;;;14.55;100.00;99546.63;5000316;28;20041;-59
2022/11/11 08:47:27;;;;;;;25.85;6.88;;;;;;;15.45;100.00;99540.06;4967740;28;20035;-58
2022/11/11 08:49:52;;;;;;;22.67;7.05;;;;;;;15.40;100.00;99553.38;4968523;28;20030;-59
2022/11/11 08:52:18;;;;;;;19.70;6.57;;;;;;;15.55;100.00;99541.44;4997457;28;20041;-57
2022/11/11 08:54:43;;;;;;;22.08;7.20;;;;;;;16.47;100.00;99552.88;4998246;28;20399;-57
2022/11/11 08:57:08;;;;;;;23.80;7.32;;;;;;;16.15;100.00;99559.41;4983899;28;20041;-58
2022/11/11 08:59:34;;;;;;;19.00;6.80;;;;;;;16.19;100.00;99553.97;4978045;28;20707;-58
2022/11/11 09:01:59;;;;;;;21.58;6.93;;;;;;;16.29;100.00;99548.34;4997251;28;20152;-58
2022/11/11 09:04:24;;;;;;;20.33;7.03;;;;;;;16.35;100.00;99556.84;4998605;28;20063;-58
2022/11/11 09:06:50;;;;;;;22.17;7.22;;;;;;;16.33;100.00;99558.66;5002996;28;20085;-59
2022/11/11 09:09:15;;;;;;;20.50;6.63;;;;;;;16.43;100.00;99553.91;4996525;28;20038;-57
2022/11/11 09:11:41;;;;;;;23.08;7.20;;;;;;;15.68;100.00;99562.03;4984334;28;20045;-57
2022/11/11 09:14:06;;;;;;;18.83;6.43;;;;;;;16.59;100.00;99556.75;4981433;28;20038;-57
2022/11/11 09:16:31;;;;;;;20.83;7.22;;;;;;;16.40;100.00;99555.81;4989763;28;20051;-58
2022/11/11 09:18:57;;;;;;;20.75;6.90;;;;;;;15.53;100.00;99566.06;4999226;28;20032;-57
2022/11/11 09:21:23;;;;;;;23.63;7.15;;;;;;;16.66;100.00;99562.66;4993358;28;20049;-58
2022/11/11 09:23:48;;;;;;;19.27;7.07;;;;;;;16.72;100.00;99568.50;4993404;28;20022;-59
2022/11/11 09:26:13;;;;;;;23.02;7.20;;;;;;;16.41;100.00;99562.78;4988669;28;20144;-59
2022/11/11 09:28:39;;;;;;;18.77;6.75;;;;;;;16.99;100.00;99565.69;4981947;28;20034;-58
2022/11/11 09:31:04;;;;;;;18.67;6.60;;;;;;;16.72;100.00;99563.25;4987866;28;20042;-58
2022/11/11 09:33:30;;;;;;;19.67;6.95;;;;;;;16.09;100.00;99575.44;4999810;28;20634;-58
2022/11/11 09:35:57;;;;;;;20.80;7.22;;;;;;;17.08;100.00;99575.84;4996577;28;20125;-57
2022/11/11 09:38:23;;;;;;;22.10;7.15;;;;;;;17.14;100.00;99580.00;4957760;28;1111727;-57
2022/11/11 09:40:58;;;;;;;22.95;7.00;;;;;;;17.44;100.00;99576.94;4992763;28;20042;-59
2022/11/11 09:43:45;;;;;;;21.30;6.88;;;;;;;17.68;100.00;99580.25;4980330;28;20183;-58
2022/11/11 09:46:23;;;;;;;17.95;6.45;;;;;;;17.82;100.00;99575.22;4988231;28;20049;-58
2022/11/11 09:48:59;;;;;;;20.05;6.47;;;;;;;17.39;100.00;99576.28;4999114;28;20034;-58
2022/11/11 09:52:02;;;;;;;18.48;6.13;;;;;;;18.68;100.00;99583.56;4998891;28;20043;-59
2022/11/11 09:54:42;;;;;;;19.10;6.80;;;;;;;19.29;100.00;99584.91;4966559;28;20444;-58
2022/11/11 09:57:21;;;;;;;18.90;6.95;;;;;;;18.57;100.00;99588.50;4964516;28;20035;-58
2022/11/11 09:59:54;;;;;;;20.02;7.05;;;;;;;18.92;100.00;99586.78;4987274;28;20037;-57
2022/11/11 10:02:48;;;;;;;19.88;6.88;;;;;;;19.61;100.00;99595.59;4975743;28;20057;-60
2022/11/11 10:05:18;;;;;;;19.55;6.63;;;;;;;17.50;100.00;99577.53;4974795;28;20034;-57
2022/11/11 10:07:56;;;;;;;21.98;7.43;;;;;;;19.15;100.00;99587.41;5000268;28;20026;-58
2022/11/11 10:10:37;;;;;;;20.77;7.30;;;;;;;18.69;100.00;99590.53;4995029;28;20071;-57
2022/11/11 10:13:02;;;;;;;20.27;6.57;;;;;;;18.83;100.00;99588.09;4997458;28;20649;-58
2022/11/11 10:15:42;;;;;;;16.35;6.32;;;;;;;19.39;100.00;99588.81;4991824;28;20554;-58
2022/11/11 10:18:33;;;;;;;18.85;6.55;;;;;;;18.12;100.00;99580.03;4977058;28;20373;-59
2022/11/11 10:21:02;;;;;;;21.83;7.38;;;;;;;19.71;100.00;99574.81;4991786;28;20144;-58
2022/11/11 10:23:34;;;;;;;20.77;7.10;;;;;;;19.65;100.00;99568.06;4991358;28;20105;-57
2022/11/11 10:26:12;;;;;;;18.67;6.20;;;;;;;19.69;100.00;99564.31;4994535;28;20559;-58
2022/11/11 10:28:42;;;;;;;15.63;6.70;;;;;;;19.10;100.00;99566.50;4997363;28;20112;-58
2022/11/11 10:31:16;;;;;;;18.35;7.07;;;;;;;19.80;100.00;99574.34;4986910;28;20037;-57
2022/11/11 10:33:54;;;;;;;21.42;7.00;;;;;;;19.97;100.00;99566.31;4981254;28;20049;-58
2022/11/11 10:36:23;;;;;;;18.95;7.38;;;;;;;18.83;100.00;99563.47;4992401;28;20632;-58
2022/11/11 10:38:54;;;;;;;19.65;7.05;;;;;;;18.71;100.00;99561.38;4996241;28;20064;-58
2022/11/11 10:41:26;;;;;;;21.02;6.88;;;;;;;19.64;100.00;99574.28;4994066;28;20137;-58
2022/11/11 10:43:51;;;;;;;21.70;6.80;;;;;;;20.70;100.00;99564.97;4993376;28;20034;-58
2022/11/11 10:46:31;;;;;;;19.23;6.65;;;;;;;20.35;100.00;99573.94;4983560;28;20496;-58
2022/11/11 10:49:03;;;;;;;15.73;6.43;;;;;;;20.26;100.00;99565.66;4981387;28;20029;-58
2022/11/11 10:51:36;;;;;;;20.08;6.70;;;;;;;19.89;100.00;99557.09;4987342;28;20042;-58
2022/11/11 10:54:11;;;;;;;17.65;6.00;;;;;;;20.30;100.00;99561.91;4996569;28;20812;-58
2022/11/11 10:56:48;;;;;;;14.38;6.13;;;;;;;20.12;100.00;99559.31;4996616;28;20069;-59
2022/11/11 10:59:23;;;;;;;17.35;6.90;;;;;;;20.71;100.00;99554.25;4993246;28;20093;-58
2022/11/11 11:01:56;;;;;;;14.25;6.18;;;;;;;19.98;100.00;99561.91;4981657;28;20045;-58
2022/11/11 11:04:41;;;;;;;18.52;6.50;;;;;;;21.04;100.00;99558.50;4974171;28;20027;-58
2022/11/11 11:07:12;;;;;;;19.30;6.30;;;;;;;20.67;100.00;99552.72;4994421;28;20570;-58
2022/11/11 11:10:04;;;;;;;16.02;5.70;;;;;;;21.03;100.00;99554.19;4997071;28;20034;-58
2022/11/11 11:12:38;;;;;;;19.97;6.90;;;;;;;20.64;100.00;99544.97;4994029;28;20053;-60
2022/11/11 11:15:17;;;;;;;17.02;5.85;;;;;;;20.87;100.00;99538.31;4996659;28;20292;-59
2022/11/11 11:17:56;;;;;;;20.67;6.18;;;;;;;20.33;100.00;99553.78;4980298;28;20145;-58
2022/11/11 11:20:22;;;;;;;12.15;5.13;;;;;;;21.41;100.00;99545.69;4985168;28;20558;-58
2022/11/11 11:23:01;;;;;;;15.27;6.13;;;;;;;20.01;100.00;99551.13;4997194;28;20026;-59
2022/11/11 11:25:29;;;;;;;18.65;6.00;;;;;;;21.20;100.00;99536.38;4996348;28;20277;-60
2022/11/11 11:28:10;;;;;;;19.23;5.72;;;;;;;22.19;100.00;99531.97;4981307;28;20026;-60
2022/11/11 11:30:35;;;;;;;22.40;5.60;;;;;;;21.85;100.00;99530.63;4980676;28;20030;-58
2022/11/11 11:33:04;;;;;;;13.15;5.03;;;;;;;22.32;100.00;99532.06;4999650;28;20022;-58
2022/11/11 11:35:35;;;;;;;15.52;5.15;;;;;;;22.63;100.00;99524.75;4995710;28;20050;-58
2022/11/11 11:38:01;;;;;;;13.30;5.00;;;;;;;22.62;100.00;99523.03;5001357;28;20025;-58
2022/11/11 11:40:27;;;;;;;12.38;4.85;;;;;;;22.49;100.00;99515.00;4991457;28;20042;-60
2022/11/11 11:42:53;;;;;;;20.83;5.72;;;;;;;22.60;100.00;99530.25;4973806;28;20034;-59
2022/11/11 11:45:28;;;;;;;18.00;5.40;;;;;;;22.64;100.00;99527.28;4980241;28;20034;-58
2022/11/11 11:47:53;;;;;;;20.23;5.82;;;;;;;21.92;99.92;99523.97;5002132;28;20033;-59
2022/11/11 11:50:37;;;;;;;17.45;5.18;;;;;;;22.63;96.82;99530.91;4994235;28;20416;-59
2022/11/11 11:53:18;;;;;;;16.90;5.00;;;;;;;21.60;98.06;99537.50;4997682;28;20021;-60
2022/11/11 11:55:49;;;;;;;13.45;4.88;;;;;;;21.50;97.35;99534.53;4990243;28;20108;-59
2022/11/11 11:58:27;;;;;;;16.90;4.82;;;;;;;22.81;92.57;99542.13;4982886;28;20058;-60
2022/11/11 12:01:03;;;;;;;19.83;5.13;;;;;;;22.60;92.81;99530.25;4987114;28;20096;-58
2022/11/11 12:04:06;;;;;;;15.82;4.75;;;;;;;22.27;91.94;99526.19;4993976;28;20876;-61
2022/11/11 12:07:00;;;;;;;14.65;4.28;;;;;;;22.22;88.18;99525.59;4995448;28;20604;-59
2022/11/11 12:09:44;;;;;;;13.27;4.20;;;;;;;22.67;91.11;99519.09;4999500;28;20041;-60
2022/11/11 12:12:36;;;;;;;16.90;4.88;;;;;;;21.29;91.99;99520.75;4973697;28;20074;-58
2022/11/11 12:15:20;;;;;;;15.75;4.80;;;;;;;21.28;91.64;99515.53;4971079;28;20033;-59
2022/11/11 12:18:21;;;;;;;18.40;4.68;;;;;;;22.10;87.57;99511.31;4965894;28;20047;-58
2022/11/11 12:20:56;;;;;;;22.00;5.15;;;;;;;20.97;88.96;99505.00;4968429;28;20554;-59
2022/11/11 12:23:36;;;;;;;15.63;4.38;;;;;;;21.93;85.65;99493.81;4972337;28;20476;-59
2022/11/11 12:26:38;;;;;;;17.88;4.32;;;;;;;22.33;83.89;99507.19;4970984;28;20566;-58
2022/11/11 12:29:22;;;;;;;;;;;;;;;22.79;83.48;99512.13;4977278;28;20027;-58
2022/11/11 12:32:20;;;;;;;15.25;3.80;;;;;;;22.45;85.40;99506.38;4989051;28;20009;-62
2022/11/11 12:35:05;;;;;;;15.52;4.10;;;;;;;22.48;83.75;99505.34;4996818;28;20498;-59
2022/11/11 12:37:56;;;;;;;17.17;4.10;;;;;;;22.11;85.35;99492.63;5002524;28;20438;-58
2022/11/11 12:40:30;;;;;;;16.55;4.50;;;;;;;22.49;83.41;99496.41;4997591;28;20052;-59
2022/11/11 12:43:39;;;;;;;19.40;4.30;;;;;;;22.63;84.75;99498.16;4979690;28;20038;-59
2022/11/11 12:46:15;;;;;;;13.85;3.33;;;;;;;21.27;81.26;99500.59;4986606;28;20042;-59
2022/11/11 12:48:53;;;;;;;17.08;3.58;;;;;;;22.02;79.38;99497.66;4998762;28;20035;-59